createdAt,value
2022-08-19T03:47:42.789Z,3.80
2022-08-19T03:50:17.660Z,4.20
2022-08-19T03:52:52.728Z,4.50
2022-08-19T03:55:26.315Z,4.67
2022-08-19T03:58:00.152Z,4.43
2022-08-19T04:00:34.373Z,3.83
2022-08-19T04:03:11.541Z,4.20
2022-08-19T04:05:45.222Z,4.43
2022-08-19T04:08:20.019Z,3.83
2022-08-19T04:10:54.432Z,4.67
2022-08-19T04:13:28.559Z,4.67
2022-08-19T04:16:03.288Z,4.30
2022-08-19T04:18:39.922Z,4.23
2022-08-19T04:21:21.767Z,4.33
2022-08-19T04:23:57.006Z,4.20
2022-08-19T04:26:35.307Z,4.20
2022-08-19T04:29:13.001Z,4.67
2022-08-19T04:31:47.270Z,4.47
2022-08-19T04:34:25.397Z,4.43
2022-08-19T04:37:01.385Z,4.40
2022-08-19T04:39:49.103Z,4.20
2022-08-19T04:42:41.067Z,3.77
2022-08-19T04:45:17.409Z,4.43
2022-08-19T04:47:58.995Z,4.40
2022-08-19T04:50:47.309Z,4.30
2022-08-19T04:53:20.923Z,4.80
2022-08-19T04:55:54.480Z,4.60
2022-08-19T04:58:30.193Z,4.87
2022-08-19T05:01:04.004Z,5.70
2022-08-19T05:03:37.498Z,6.30
2022-08-19T05:06:18.426Z,4.87
2022-08-19T05:08:52.742Z,5.17
2022-08-19T05:11:36.304Z,5.53
2022-08-19T05:17:26.173Z,6.13
2022-08-19T05:20:15.363Z,5.10
2022-08-19T05:22:51.937Z,5.83
2022-08-19T05:25:26.568Z,5.47
2022-08-19T05:28:00.306Z,6.10
2022-08-19T05:30:46.873Z,5.80
2022-08-19T05:33:22.349Z,6.50
2022-08-19T05:35:57.049Z,6.63
2022-08-19T05:38:32.140Z,6.50
2022-08-19T05:41:10.630Z,7.27
2022-08-19T05:43:46.864Z,7.03
2022-08-19T05:46:27.901Z,6.80
2022-08-19T05:49:01.981Z,6.90
2022-08-19T05:51:38.263Z,7.50
2022-08-19T05:54:14.913Z,8.40
2022-08-19T05:56:49.515Z,7.13
2022-08-19T05:59:25.040Z,7.10
2022-08-19T06:01:58.628Z,7.50
2022-08-19T06:04:32.225Z,7.37
2022-08-19T06:07:12.715Z,7.10
2022-08-19T06:09:54.417Z,7.10
2022-08-19T06:12:36.605Z,6.53
2022-08-19T06:15:14.398Z,6.90
2022-08-19T06:17:47.983Z,7.50
2022-08-19T06:20:39.792Z,7.07
2022-08-19T06:23:16.245Z,7.40
2022-08-19T06:25:52.148Z,7.63
2022-08-19T06:28:25.913Z,7.97
2022-08-19T06:30:59.813Z,6.67
2022-08-19T06:33:33.221Z,8.23
2022-08-19T06:36:07.458Z,7.13
2022-08-19T06:38:40.936Z,8.10
2022-08-19T06:41:16.438Z,7.40
2022-08-19T06:43:49.992Z,8.73
2022-08-19T06:46:28.698Z,9.60
2022-08-19T06:49:02.995Z,9.70
2022-08-19T06:51:42.519Z,10.10
2022-08-19T06:54:20.383Z,9.50
2022-08-19T06:56:55.863Z,9.33
2022-08-19T06:59:29.380Z,9.37
2022-08-19T07:02:07.652Z,8.83
2022-08-19T07:04:42.493Z,9.07
2022-08-19T07:07:20.072Z,9.57
2022-08-19T07:09:59.197Z,10.63
2022-08-19T07:12:38.231Z,8.47
2022-08-19T07:15:13.772Z,8.73
2022-08-19T07:17:52.586Z,10.47
2022-08-19T07:20:28.641Z,9.97
2022-08-19T07:23:02.977Z,9.45
2022-08-19T07:25:41.403Z,9.97
2022-08-19T07:28:24.478Z,10.37
2022-08-19T07:31:04.693Z,9.50
2022-08-19T07:33:40.036Z,10.52
2022-08-19T07:36:17.888Z,8.70
2022-08-19T07:38:54.623Z,9.45
2022-08-19T07:41:32.680Z,9.73
2022-08-19T07:44:10.267Z,9.45
2022-08-19T07:46:48.299Z,9.00
2022-08-19T07:49:25.713Z,9.07
2022-08-19T07:52:03.772Z,8.50
2022-08-19T07:54:41.664Z,9.60
2022-08-19T07:57:15.644Z,9.70
2022-08-19T07:59:50.631Z,11.45
2022-08-19T08:02:24.426Z,11.07
2022-08-19T08:05:18.327Z,10.05
2022-08-19T08:08:09.322Z,10.50
2022-08-19T08:10:43.308Z,10.43
2022-08-19T08:13:25.401Z,10.30
2022-08-19T08:16:01.399Z,11.90
2022-08-19T08:18:42.298Z,11.27
2022-08-19T08:21:16.018Z,10.93
2022-08-19T08:23:51.077Z,11.90
2022-08-19T08:26:26.856Z,12.77
2022-08-19T08:29:02.389Z,13.18
2022-08-19T08:31:47.953Z,12.35
2022-08-19T08:34:22.865Z,12.52
2022-08-19T08:36:56.925Z,13.40
2022-08-19T08:39:30.489Z,13.65
2022-08-19T08:42:18.541Z,13.43
2022-08-19T08:45:00.373Z,13.77
2022-08-19T08:47:42.136Z,15.55
2022-08-19T08:50:21.723Z,14.52
2022-08-19T08:52:59.003Z,14.82
2022-08-19T08:55:36.929Z,16.50
2022-08-19T08:58:18.713Z,15.77
2022-08-19T09:00:52.370Z,15.73
2022-08-19T09:03:31.482Z,15.00
2022-08-19T09:06:11.950Z,14.93
2022-08-19T09:09:03.871Z,15.60
2022-08-19T09:12:06.061Z,14.18
2022-08-19T09:14:52.015Z,13.00
2022-08-19T09:17:31.968Z,14.65
2022-08-19T09:20:18.057Z,14.98
2022-08-19T09:22:52.429Z,13.82
2022-08-19T09:25:29.394Z,13.45
2022-08-19T09:28:05.939Z,16.33
2022-08-19T09:30:56.204Z,17.85
2022-08-19T09:33:30.228Z,15.15
2022-08-19T09:36:10.005Z,15.32
2022-08-19T09:38:43.909Z,13.32
2022-08-19T09:41:20.901Z,14.38
2022-08-19T09:43:58.309Z,13.45
2022-08-19T09:46:32.765Z,12.02
2022-08-19T09:49:07.167Z,12.68
2022-08-19T09:51:42.064Z,12.82
2022-08-19T09:54:17.941Z,12.15
2022-08-19T09:57:01.255Z,11.32
2022-08-19T09:59:38.662Z,10.00
2022-08-19T10:02:12.985Z,10.52
2022-08-19T10:05:04.069Z,9.70
2022-08-19T10:07:44.120Z,8.27
2022-08-19T10:10:18.333Z,8.77
2022-08-19T10:12:55.623Z,7.75
2022-08-19T10:15:32.998Z,7.03
2022-08-19T10:18:24.510Z,6.85
2022-08-19T10:21:11.852Z,7.25
2022-08-19T10:23:50.686Z,7.10
2022-08-19T10:26:29.616Z,8.65
2022-08-19T10:29:05.778Z,8.40
2022-08-19T10:32:00.737Z,8.45
2022-08-19T10:34:34.349Z,7.55
2022-08-19T10:37:10.843Z,8.50
2022-08-19T10:39:49.773Z,8.45
2022-08-19T10:42:23.543Z,8.30
2022-08-19T10:44:57.408Z,7.40
2022-08-19T10:47:32.195Z,8.27
2022-08-19T10:50:28.768Z,7.80
2022-08-19T10:53:09.788Z,8.77
2022-08-19T10:56:11.244Z,8.98
2022-08-19T10:58:46.051Z,8.38
2022-08-19T11:01:19.651Z,9.10
2022-08-19T11:03:53.495Z,9.43
2022-08-19T11:06:27.171Z,9.40
2022-08-19T11:09:04.169Z,9.18
2022-08-19T11:11:41.795Z,8.38
2022-08-19T11:14:21.405Z,9.75
2022-08-19T11:16:56.968Z,9.65
2022-08-19T11:19:31.019Z,7.50
2022-08-19T11:22:04.920Z,7.40
2022-08-19T11:24:39.063Z,8.35
2022-08-19T11:27:15.311Z,7.47
2022-08-19T11:29:49.435Z,8.68
2022-08-19T11:32:23.015Z,8.23
2022-08-19T11:34:56.544Z,9.13
2022-08-19T11:37:30.078Z,9.20
2022-08-19T11:40:03.708Z,9.23
2022-08-19T11:42:52.468Z,9.50
2022-08-19T11:45:26.653Z,7.82
2022-08-19T11:48:00.261Z,8.43
2022-08-19T11:50:33.736Z,6.93
2022-08-19T11:53:07.235Z,6.85
2022-08-19T11:55:45.714Z,6.70
2022-08-19T11:58:26.906Z,7.32
2022-08-19T12:01:00.985Z,6.15
2022-08-19T12:03:34.805Z,5.97
2022-08-19T12:06:11.084Z,5.38
2022-08-19T12:08:46.313Z,6.68
2022-08-19T12:11:19.994Z,6.40
2022-08-19T12:13:56.008Z,5.47
2022-08-19T12:16:32.919Z,5.72
2022-08-19T12:19:07.687Z,5.90
2022-08-19T12:21:41.295Z,6.40
2022-08-19T12:24:14.680Z,6.25
2022-08-19T12:26:53.247Z,5.22
2022-08-19T12:29:29.527Z,5.28
2022-08-19T12:32:03.934Z,5.05
2022-08-19T12:34:38.189Z,4.75
2022-08-19T12:37:13.157Z,4.78
2022-08-19T12:39:50.332Z,5.10
2022-08-19T12:42:24.143Z,4.57
2022-08-19T12:44:59.556Z,4.80
2022-08-19T12:47:33.157Z,3.95
2022-08-19T12:50:09.547Z,4.55
2022-08-19T12:52:43.586Z,3.83
2022-08-19T12:55:19.569Z,3.75
2022-08-19T12:57:53.702Z,4.20
2022-08-19T13:00:33.766Z,3.95
2022-08-19T13:03:07.625Z,3.80
2022-08-19T13:05:41.890Z,3.90
2022-08-19T13:08:15.327Z,4.60
2022-08-19T13:10:48.761Z,3.38
2022-08-19T13:13:22.682Z,3.63
2022-08-19T13:16:04.361Z,4.00
2022-08-19T13:18:38.405Z,3.53
2022-08-19T13:21:16.323Z,3.50
2022-08-19T13:23:50.134Z,3.97
2022-08-19T13:26:23.867Z,3.78
2022-08-19T13:29:15.014Z,4.30
2022-08-19T13:32:07.372Z,3.60
2022-08-19T13:34:40.961Z,4.03
2022-08-19T13:37:14.904Z,3.28
2022-08-19T13:39:48.698Z,3.55
2022-08-19T13:42:26.723Z,3.45
2022-08-19T13:45:00.602Z,3.20
2022-08-19T13:47:37.148Z,3.35
2022-08-19T13:50:12.781Z,3.38
2022-08-19T13:52:46.535Z,3.22
2022-08-19T13:55:22.116Z,2.80
2022-08-19T13:58:02.801Z,3.35
2022-08-19T14:00:42.482Z,3.58
2022-08-19T14:03:18.745Z,3.05
2022-08-19T14:05:56.745Z,3.33
2022-08-19T14:08:33.265Z,3.65
2022-08-19T14:11:07.065Z,3.08
2022-08-19T14:13:40.489Z,2.92
2022-08-19T14:16:16.425Z,3.00
2022-08-19T14:18:51.246Z,2.80
2022-08-19T14:21:26.783Z,2.45
2022-08-19T14:24:00.233Z,2.92
2022-08-19T14:26:33.883Z,2.97
2022-08-19T14:29:08.649Z,3.40
2022-08-19T14:31:44.187Z,3.03
2022-08-19T14:34:19.526Z,3.00
2022-08-19T14:36:53.248Z,2.90
2022-08-19T14:39:27.315Z,3.33
2022-08-19T14:42:01.116Z,3.20
2022-08-19T14:44:35.468Z,3.25
2022-08-19T14:47:10.062Z,3.67
2022-08-19T14:49:48.435Z,3.50
2022-08-19T14:52:22.216Z,3.50
2022-08-19T14:54:55.833Z,2.88
2022-08-19T14:57:29.320Z,3.55
2022-08-19T15:00:02.991Z,3.33
2022-08-19T15:02:36.374Z,3.20
2022-08-19T15:05:11.987Z,3.10
2022-08-19T15:07:45.870Z,3.35
2022-08-19T15:10:19.925Z,3.45
2022-08-19T15:12:55.669Z,3.35
2022-08-19T15:15:29.299Z,3.20
2022-08-19T15:18:03.623Z,3.33
2022-08-19T15:20:39.231Z,3.30
2022-08-19T15:23:16.395Z,3.08
2022-08-19T15:25:56.545Z,3.60
2022-08-19T15:28:31.159Z,3.45
2022-08-19T15:31:06.067Z,3.40
2022-08-19T15:33:41.466Z,3.45
2022-08-19T15:36:18.863Z,3.80
2022-08-19T15:38:53.307Z,3.97
2022-08-19T15:41:32.462Z,3.55
2022-08-19T15:44:16.434Z,4.68
2022-08-19T15:46:50.812Z,3.97
2022-08-19T15:49:24.325Z,4.07
2022-08-19T15:52:00.275Z,3.80
2022-08-19T15:54:33.970Z,3.78
2022-08-19T15:57:39.616Z,4.15
2022-08-19T16:00:31.061Z,4.53
2022-08-19T16:03:22.177Z,3.45
2022-08-19T16:06:13.625Z,3.38
2022-08-19T16:08:50.416Z,3.67
2022-08-19T16:11:29.468Z,4.10
2022-08-19T16:14:04.349Z,3.45
2022-08-19T16:16:39.555Z,3.35
2022-08-19T16:19:15.739Z,3.10
2022-08-19T16:21:52.786Z,3.47
2022-08-19T16:24:29.284Z,3.20
2022-08-19T16:27:03.341Z,3.30
2022-08-19T16:29:39.315Z,3.28
2022-08-19T16:32:14.156Z,3.22
2022-08-19T16:34:48.858Z,3.28
2022-08-19T16:37:23.309Z,3.03
2022-08-19T16:39:58.522Z,3.15
2022-08-19T16:42:32.107Z,3.72
2022-08-19T16:45:08.981Z,3.50
2022-08-19T16:47:42.491Z,3.85
2022-08-19T16:50:21.989Z,2.95
2022-08-19T16:52:58.940Z,3.47
2022-08-19T16:55:34.056Z,3.55
2022-08-19T16:58:07.513Z,3.50
2022-08-19T17:00:41.177Z,3.90
2022-08-19T17:03:15.370Z,3.45
2022-08-19T17:05:52.461Z,3.15
2022-08-19T17:08:28.878Z,4.18
2022-08-19T17:11:17.645Z,3.58
2022-08-19T17:13:53.368Z,3.70
2022-08-19T17:16:32.109Z,3.33
2022-08-19T17:19:09.026Z,3.90
2022-08-19T17:21:42.432Z,3.90
2022-08-19T17:24:16.792Z,3.40
2022-08-19T17:26:51.748Z,4.90
2022-08-19T17:29:25.775Z,4.68
2022-08-19T17:31:59.713Z,4.70
2022-08-19T17:34:33.593Z,4.40
2022-08-19T17:37:07.349Z,4.30
2022-08-19T17:39:40.798Z,5.25
2022-08-19T17:42:15.777Z,4.90
2022-08-19T17:44:50.719Z,5.07
2022-08-19T17:47:24.930Z,4.50
2022-08-19T17:49:58.529Z,4.57
2022-08-19T17:52:33.112Z,4.60
2022-08-19T17:55:12.947Z,4.95
2022-08-19T17:57:48.068Z,5.35
2022-08-19T18:00:23.558Z,6.03
2022-08-19T18:03:03.045Z,4.90
2022-08-19T18:05:43.910Z,5.55
2022-08-19T18:08:17.449Z,5.90
2022-08-19T18:10:51.163Z,5.95
2022-08-19T18:13:26.113Z,5.50
2022-08-19T18:15:59.923Z,5.55
2022-08-19T18:18:33.549Z,6.22
2022-08-19T18:21:09.163Z,5.55
2022-08-19T18:23:45.837Z,6.35
2022-08-19T18:26:20.244Z,6.30
2022-08-19T18:28:55.310Z,6.38
2022-08-19T18:31:29.137Z,5.90
2022-08-19T18:34:03.329Z,6.30
2022-08-19T18:36:53.086Z,4.90
2022-08-19T18:39:45.336Z,4.38
2022-08-19T18:42:37.342Z,5.25
2022-08-19T18:45:33.527Z,4.70
2022-08-19T18:48:27.560Z,4.20
2022-08-19T18:51:03.041Z,4.22
2022-08-19T18:53:41.481Z,4.05
2022-08-19T18:56:19.691Z,4.55
2022-08-19T18:58:53.518Z,4.47
2022-08-19T19:01:33.212Z,4.38
2022-08-19T19:04:11.586Z,3.70
2022-08-19T19:06:45.682Z,4.03
2022-08-19T19:09:23.822Z,3.85
2022-08-19T19:12:00.704Z,4.88
2022-08-19T19:14:49.039Z,5.13
2022-08-19T19:17:27.347Z,5.20
2022-08-19T19:20:00.986Z,5.15
2022-08-19T19:22:34.390Z,5.68
2022-08-19T19:25:10.309Z,5.28
2022-08-19T19:27:43.846Z,6.00
2022-08-19T19:30:17.746Z,6.25
2022-08-19T19:32:54.421Z,6.10
2022-08-19T19:35:31.270Z,5.90
2022-08-19T19:38:04.879Z,5.38
2022-08-19T19:40:38.396Z,5.40
2022-08-19T19:43:12.873Z,6.05
2022-08-19T19:45:48.288Z,6.05
2022-08-19T19:48:25.101Z,6.22
2022-08-19T19:51:00.939Z,6.22
2022-08-19T19:53:35.503Z,6.15
2022-08-19T19:56:09.895Z,5.63
2022-08-19T19:58:43.461Z,5.80
2022-08-19T20:01:21.744Z,5.70
2022-08-19T20:04:01.371Z,5.90
2022-08-19T20:06:34.803Z,4.90
2022-08-19T20:09:19.469Z,4.82
2022-08-19T20:11:57.577Z,4.22
2022-08-19T20:14:36.762Z,3.92
2022-08-19T20:17:10.282Z,3.35
2022-08-19T20:19:45.151Z,3.40
2022-08-19T20:22:19.228Z,3.17
2022-08-19T20:24:53.791Z,3.03
2022-08-19T20:27:27.210Z,2.85
2022-08-19T20:30:05.899Z,2.83
2022-08-19T20:32:39.544Z,2.88
2022-08-19T20:35:16.665Z,2.67
2022-08-19T20:37:54.925Z,2.55
2022-08-19T20:40:39.350Z,2.85
2022-08-19T20:43:15.269Z,2.80
2022-08-19T20:45:48.739Z,2.88
2022-08-19T20:48:22.346Z,3.25
2022-08-19T20:50:57.443Z,2.85
2022-08-19T20:53:31.735Z,3.00
2022-08-19T20:56:06.695Z,2.95
2022-08-19T20:58:41.294Z,2.92
2022-08-19T21:01:15.336Z,3.05
2022-08-19T21:03:48.821Z,2.97
2022-08-19T21:06:24.195Z,2.80
2022-08-19T21:08:57.978Z,2.55
2022-08-19T21:11:32.327Z,2.38
2022-08-19T21:14:06.020Z,3.00
2022-08-19T21:16:39.575Z,2.85
2022-08-19T21:19:13.130Z,3.38
2022-08-19T21:21:47.917Z,2.88
2022-08-19T21:24:26.345Z,3.17
2022-08-19T21:27:05.370Z,2.90
2022-08-19T21:29:40.533Z,2.53
2022-08-19T21:32:14.541Z,2.92
2022-08-19T21:34:48.227Z,3.17
2022-08-19T21:37:25.865Z,3.13
2022-08-19T21:39:59.747Z,3.50
2022-08-19T21:42:33.576Z,3.05
2022-08-19T21:45:08.450Z,3.58
2022-08-19T21:47:41.959Z,3.42
2022-08-19T21:50:15.692Z,3.58
2022-08-19T21:52:50.618Z,3.60
2022-08-19T21:55:24.727Z,3.60
2022-08-19T21:58:00.187Z,3.10
2022-08-19T22:00:35.265Z,3.45
2022-08-19T22:03:13.537Z,3.78
2022-08-19T22:05:47.777Z,3.15
2022-08-19T22:08:22.532Z,3.67
2022-08-19T22:10:56.311Z,3.25
2022-08-19T22:13:32.515Z,3.88
2022-08-19T22:16:08.472Z,3.70
2022-08-19T22:18:42.099Z,3.97
2022-08-19T22:21:16.261Z,3.70
2022-08-19T22:24:05.480Z,3.80
2022-08-19T22:26:39.011Z,4.53
2022-08-19T22:29:13.307Z,3.83
2022-08-19T22:31:54.281Z,3.60
2022-08-19T22:34:31.825Z,3.38
2022-08-19T22:37:06.529Z,3.05
2022-08-19T22:39:41.523Z,3.00
2022-08-19T22:42:18.501Z,2.63
2022-08-19T22:44:52.457Z,3.10
2022-08-19T22:47:29.458Z,3.08
2022-08-19T22:50:07.843Z,2.97
2022-08-19T22:52:51.947Z,3.50
2022-08-19T22:55:34.132Z,3.75
2022-08-19T22:58:09.973Z,4.38
2022-08-19T23:00:43.922Z,4.70
2022-08-19T23:03:17.594Z,5.35
2022-08-19T23:05:51.418Z,5.00
2022-08-19T23:08:26.216Z,5.50
2022-08-19T23:11:06.216Z,6.63
2022-08-19T23:13:43.395Z,5.80
2022-08-19T23:16:16.971Z,6.68
2022-08-19T23:18:50.801Z,7.28
2022-08-19T23:21:29.891Z,7.75
2022-08-19T23:24:03.485Z,6.93
2022-08-19T23:26:38.967Z,6.15
2022-08-19T23:29:34.975Z,7.15
2022-08-19T23:32:08.929Z,7.10
2022-08-19T23:34:42.378Z,8.20
2022-08-19T23:37:16.055Z,6.47
2022-08-19T23:39:49.564Z,6.72
2022-08-19T23:42:26.044Z,7.03
2022-08-19T23:45:03.785Z,7.50
2022-08-19T23:47:37.379Z,6.88
2022-08-19T23:50:15.542Z,7.38
2022-08-19T23:52:53.305Z,6.97
2022-08-19T23:55:30.563Z,7.32
2022-08-19T23:58:08.074Z,8.00
